createdAt,value
2022-12-14T00:01:49.168Z,16.00
2022-12-14T00:04:17.340Z,15.40
2022-12-14T00:06:44.518Z,17.30
2022-12-14T00:09:11.648Z,13.77
2022-12-14T00:11:38.743Z,15.90
2022-12-14T00:14:06.268Z,16.10
2022-12-14T00:16:35.183Z,16.70
2022-12-14T00:19:03.163Z,15.57
2022-12-14T00:21:30.277Z,15.37
2022-12-14T00:23:59.807Z,16.30
2022-12-14T00:26:32.682Z,16.60
2022-12-14T00:29:02.466Z,15.60
2022-12-14T00:31:31.707Z,15.40
2022-12-14T00:34:01.312Z,16.43
2022-12-14T00:36:31.562Z,17.23
2022-12-14T00:38:59.048Z,16.43
2022-12-14T00:41:29.332Z,16.67
2022-12-14T00:43:56.606Z,17.10
2022-12-14T00:46:23.842Z,17.43
2022-12-14T00:48:50.972Z,17.10
2022-12-14T00:51:18.752Z,17.00
2022-12-14T00:53:45.969Z,17.10
2022-12-14T00:56:13.271Z,16.83
2022-12-14T00:58:40.706Z,17.33
2022-12-14T01:01:15.222Z,15.77
2022-12-14T01:03:42.841Z,18.23
2022-12-14T01:06:22.963Z,16.80
2022-12-14T01:08:50.133Z,17.47
2022-12-14T01:11:17.255Z,17.43
2022-12-14T01:13:44.469Z,15.80
2022-12-14T01:16:16.734Z,18.17
2022-12-14T01:18:43.935Z,16.27
2022-12-14T01:21:15.885Z,17.00
2022-12-14T01:23:44.509Z,17.03
2022-12-14T01:26:14.021Z,17.43
2022-12-14T01:28:41.962Z,17.83
2022-12-14T01:31:16.282Z,17.43
2022-12-14T01:33:44.886Z,16.60
2022-12-14T01:36:22.342Z,17.07
2022-12-14T01:38:54.970Z,16.87
2022-12-14T01:41:37.770Z,18.83
2022-12-14T01:44:24.687Z,18.70
2022-12-14T01:47:12.665Z,16.60
2022-12-14T01:49:47.397Z,17.37
2022-12-14T01:52:51.280Z,18.17
2022-12-14T01:55:39.525Z,17.53
2022-12-14T01:58:28.923Z,17.63
2022-12-14T02:01:00.355Z,17.50
2022-12-14T02:03:42.137Z,17.80
2022-12-14T02:06:26.527Z,17.47
2022-12-14T02:08:55.525Z,18.17
2022-12-14T02:12:07.821Z,19.60
2022-12-14T02:14:35.493Z,18.60
2022-12-14T02:17:03.490Z,20.07
2022-12-14T02:19:30.684Z,18.60
2022-12-14T02:22:36.359Z,18.40
2022-12-14T02:25:33.848Z,18.50
2022-12-14T02:28:30.706Z,19.00
2022-12-14T02:31:15.829Z,18.30
2022-12-14T02:33:56.769Z,19.13
2022-12-14T02:36:41.600Z,19.47
2022-12-14T02:39:47.614Z,17.43
2022-12-14T02:42:24.304Z,17.80
2022-12-14T02:45:11.635Z,19.17
2022-12-14T02:48:03.066Z,16.60
2022-12-14T02:51:10.828Z,19.23
2022-12-14T02:54:03.829Z,17.97
2022-12-14T02:56:42.731Z,17.77
2022-12-14T02:59:10.544Z,18.80
2022-12-14T03:01:39.593Z,17.37
2022-12-14T03:04:07.824Z,17.73
2022-12-14T03:06:35.275Z,18.30
2022-12-14T03:09:14.672Z,18.53
2022-12-14T03:12:12.044Z,17.67
2022-12-14T03:14:46.494Z,17.63
2022-12-14T03:17:19.798Z,18.27
2022-12-14T03:19:59.229Z,18.40
2022-12-14T03:22:39.162Z,19.00
2022-12-14T03:25:15.343Z,17.63
2022-12-14T03:28:01.772Z,17.57
2022-12-14T03:30:58.060Z,17.97
2022-12-14T03:33:24.414Z,18.47
2022-12-14T03:36:10.933Z,17.90
2022-12-14T03:38:50.112Z,18.20
2022-12-14T03:41:52.616Z,17.80
2022-12-14T03:44:49.060Z,17.70
2022-12-14T03:50:19.658Z,16.10
2022-12-14T03:55:49.037Z,16.30
2022-12-14T03:58:40.466Z,17.30
2022-12-14T04:01:52.419Z,18.60
2022-12-14T04:04:24.237Z,17.10
2022-12-14T04:07:04.797Z,17.27
2022-12-14T04:10:36.528Z,19.97
2022-12-14T04:13:35.368Z,17.93
2022-12-14T04:16:39.530Z,19.30
2022-12-14T04:19:15.672Z,19.07
2022-12-14T04:22:02.951Z,19.23
2022-12-14T04:25:06.276Z,19.03
2022-12-14T04:27:48.069Z,18.70
2022-12-14T04:30:15.843Z,18.77
2022-12-14T04:32:56.150Z,19.93
2022-12-14T04:35:42.051Z,19.93
2022-12-14T04:38:21.759Z,17.58
2022-12-14T04:40:59.550Z,18.27
2022-12-14T04:43:35.180Z,18.60
2022-12-14T04:48:57.082Z,16.43
2022-12-14T04:51:36.385Z,17.00
2022-12-14T04:54:33.988Z,17.50
2022-12-14T04:57:31.625Z,19.37
2022-12-14T05:00:00.855Z,16.80
2022-12-14T05:02:42.765Z,15.40
2022-12-14T05:06:02.653Z,15.43
2022-12-14T05:08:53.662Z,14.63
2022-12-14T05:12:08.161Z,14.67
2022-12-14T05:14:55.739Z,15.47
2022-12-14T05:17:22.809Z,14.77
2022-12-14T05:19:51.289Z,16.07
2022-12-14T05:22:18.609Z,14.90
2022-12-14T05:24:45.875Z,16.37
2022-12-14T05:27:13.616Z,15.47
2022-12-14T05:29:40.653Z,15.37
2022-12-14T05:32:12.603Z,15.43
2022-12-14T05:34:40.442Z,15.60
2022-12-14T05:37:09.570Z,15.20
2022-12-14T05:39:40.168Z,15.33
2022-12-14T05:42:07.254Z,15.77
2022-12-14T05:44:34.425Z,15.33
2022-12-14T05:47:01.537Z,16.87
2022-12-14T05:49:28.632Z,16.13
2022-12-14T05:51:55.785Z,16.10
2022-12-14T05:54:22.951Z,15.50
2022-12-14T05:56:50.137Z,15.53
2022-12-14T05:59:17.938Z,16.50
2022-12-14T06:01:49.430Z,16.17
2022-12-14T06:04:19.174Z,16.10
2022-12-14T06:06:46.865Z,15.97
2022-12-14T06:09:16.576Z,16.40
2022-12-14T06:11:45.184Z,14.77
2022-12-14T06:14:13.168Z,16.90
2022-12-14T06:16:42.589Z,15.70
2022-12-14T06:19:10.876Z,15.63
2022-12-14T06:21:40.403Z,16.73
2022-12-14T06:24:09.952Z,14.33
2022-12-14T06:26:37.660Z,15.07
2022-12-14T06:29:05.168Z,15.43
2022-12-14T06:31:33.652Z,14.77
2022-12-14T06:34:03.252Z,15.83
2022-12-14T06:36:34.665Z,15.30
2022-12-14T06:39:12.550Z,16.77
2022-12-14T06:41:40.729Z,15.47
2022-12-14T06:44:14.203Z,15.27
2022-12-14T06:46:42.038Z,14.77
2022-12-14T06:49:15.032Z,15.47
2022-12-14T06:51:42.829Z,14.53
2022-12-14T06:54:15.131Z,14.03
2022-12-14T06:56:44.696Z,15.40
2022-12-14T06:59:13.215Z,14.90
2022-12-14T07:01:40.885Z,15.30
2022-12-14T07:04:09.546Z,14.77
2022-12-14T07:06:40.316Z,14.80
2022-12-14T07:09:11.992Z,14.93
2022-12-14T07:11:39.640Z,14.80
2022-12-14T07:14:07.422Z,14.23
2022-12-14T07:16:36.996Z,14.67
2022-12-14T07:19:04.908Z,14.37
2022-12-14T07:21:33.247Z,15.03
2022-12-14T07:24:01.519Z,13.20
2022-12-14T07:26:29.446Z,14.60
2022-12-14T07:29:00.727Z,14.50
2022-12-14T07:31:30.790Z,15.30
2022-12-14T07:34:00.103Z,14.73
2022-12-14T07:36:29.849Z,13.37
2022-12-14T07:38:57.571Z,13.77
2022-12-14T07:41:31.191Z,15.40
2022-12-14T07:44:01.728Z,15.13
2022-12-14T07:46:32.375Z,13.33
2022-12-14T07:49:01.122Z,15.57
2022-12-14T07:51:37.703Z,13.80
2022-12-14T07:54:06.347Z,17.07
2022-12-14T07:56:40.897Z,13.83
2022-12-14T07:59:14.573Z,13.93
2022-12-14T08:01:43.651Z,14.93
2022-12-14T08:04:18.612Z,14.80
2022-12-14T08:06:48.093Z,13.47
2022-12-14T08:09:16.471Z,14.93
2022-12-14T08:11:43.942Z,14.20
2022-12-14T08:14:18.999Z,13.67
2022-12-14T08:16:47.947Z,16.35
2022-12-14T08:19:15.687Z,15.30
2022-12-14T08:21:46.684Z,16.40
2022-12-14T08:24:14.648Z,15.87
2022-12-14T08:26:49.016Z,15.57
2022-12-14T08:29:17.787Z,15.40
2022-12-14T08:31:45.044Z,17.53
2022-12-14T08:34:12.291Z,14.07
2022-12-14T08:36:39.406Z,15.63
2022-12-14T08:39:10.148Z,15.70
2022-12-14T08:41:37.305Z,15.20
2022-12-14T08:44:05.618Z,15.70
2022-12-14T08:46:35.601Z,16.13
2022-12-14T08:49:03.177Z,15.17
2022-12-14T08:51:30.818Z,16.00
2022-12-14T08:53:58.403Z,15.87
2022-12-14T08:56:27.899Z,16.07
2022-12-14T08:58:56.715Z,16.23
2022-12-14T09:01:32.977Z,16.00
2022-12-14T09:04:08.616Z,15.90
2022-12-14T09:06:39.799Z,15.97
2022-12-14T09:09:15.547Z,16.60
2022-12-14T09:11:45.370Z,15.53
2022-12-14T09:14:12.691Z,15.87
2022-12-14T09:16:40.390Z,15.13
2022-12-14T09:19:07.772Z,18.03
2022-12-14T09:21:34.991Z,16.30
2022-12-14T09:24:02.114Z,16.17
2022-12-14T09:26:29.937Z,17.03
2022-12-14T09:29:01.110Z,15.93
2022-12-14T09:31:29.081Z,16.17
2022-12-14T09:33:56.871Z,16.90
2022-12-14T09:36:27.497Z,17.40
2022-12-14T09:38:55.567Z,17.10
2022-12-14T09:41:35.031Z,16.73
2022-12-14T09:44:24.965Z,17.33
2022-12-14T09:47:18.947Z,17.10
2022-12-14T09:49:52.648Z,16.93
2022-12-14T09:52:35.675Z,17.07
2022-12-14T09:55:15.441Z,17.87
2022-12-14T09:57:45.187Z,17.93
2022-12-14T10:00:19.899Z,17.80
2022-12-14T10:03:10.293Z,17.55
2022-12-14T10:06:06.486Z,18.07
2022-12-14T10:08:52.693Z,17.55
2022-12-14T10:12:14.513Z,16.13
2022-12-14T10:15:07.114Z,17.17
2022-12-14T10:18:49.444Z,18.07
2022-12-14T10:21:13.508Z,16.83
2022-12-14T10:23:52.921Z,17.33
2022-12-14T10:26:23.190Z,17.77
2022-12-14T10:29:01.249Z,18.03
2022-12-14T10:31:55.536Z,19.00
2022-12-14T10:34:28.502Z,18.33
2022-12-14T10:37:14.358Z,18.17
2022-12-14T10:39:56.469Z,17.90
2022-12-14T10:43:07.640Z,18.63
2022-12-14T10:46:13.796Z,18.77
2022-12-14T10:48:52.860Z,17.95
2022-12-14T10:51:39.598Z,18.37
2022-12-14T10:54:52.228Z,19.20
2022-12-14T10:57:26.502Z,19.50
2022-12-14T11:00:08.345Z,17.73
2022-12-14T11:02:54.588Z,17.90
2022-12-14T11:05:53.240Z,17.13
2022-12-14T11:08:42.166Z,18.90
2022-12-14T11:11:32.514Z,19.33
2022-12-14T11:14:24.932Z,20.00
2022-12-14T11:16:52.295Z,18.33
2022-12-14T11:19:23.990Z,18.90
2022-12-14T11:22:07.212Z,18.93
2022-12-14T11:24:47.241Z,18.87
2022-12-14T11:27:21.081Z,16.73
2022-12-14T11:29:50.554Z,21.03
2022-12-14T11:32:25.534Z,17.87
2022-12-14T11:34:59.179Z,18.05
2022-12-14T11:37:31.642Z,18.97
2022-12-14T11:40:06.629Z,18.00
2022-12-14T11:42:34.432Z,18.85
2022-12-14T11:45:33.782Z,18.33
2022-12-14T11:48:16.089Z,18.07
2022-12-14T11:50:45.622Z,18.53
2022-12-14T11:53:19.385Z,19.43
2022-12-14T11:55:57.814Z,19.00
2022-12-14T11:58:46.049Z,19.00
2022-12-14T12:01:18.817Z,18.37
2022-12-14T12:03:54.224Z,19.33
2022-12-14T12:06:29.869Z,19.55
2022-12-14T12:09:02.661Z,19.00
2022-12-14T12:11:35.063Z,17.90
2022-12-14T12:14:22.114Z,20.23
2022-12-14T12:16:49.280Z,18.53
2022-12-14T12:19:28.436Z,19.97
2022-12-14T12:21:59.565Z,19.17
2022-12-14T12:24:55.180Z,19.83
2022-12-14T12:27:26.802Z,19.13
2022-12-14T12:30:13.907Z,20.67
2022-12-14T12:32:50.232Z,18.83
2022-12-14T12:35:54.125Z,19.17
2022-12-14T12:38:53.788Z,19.60
2022-12-14T12:41:21.265Z,19.73
2022-12-14T12:44:49.841Z,21.53
2022-12-14T12:47:47.043Z,19.73
2022-12-14T12:50:21.716Z,18.50
2022-12-14T12:53:11.670Z,20.23
2022-12-14T12:55:48.976Z,19.40
2022-12-14T12:58:31.133Z,18.83
2022-12-14T13:01:04.531Z,19.43
2022-12-14T13:03:45.197Z,20.63
2022-12-14T13:06:27.917Z,19.83
2022-12-14T13:09:02.948Z,20.87
2022-12-14T13:11:38.170Z,20.33
2022-12-14T13:14:49.955Z,20.88
2022-12-14T13:17:49.387Z,20.57
2022-12-14T13:20:30.197Z,20.80
2022-12-14T13:23:05.753Z,18.63
2022-12-14T13:26:01.297Z,20.17
2022-12-14T13:28:50.687Z,19.87
2022-12-14T13:31:38.109Z,19.47
2022-12-14T13:34:17.278Z,20.33
2022-12-14T13:37:00.795Z,20.67
2022-12-14T13:39:56.220Z,18.70
2022-12-14T13:42:55.379Z,23.07
2022-12-14T13:45:30.189Z,21.23
2022-12-14T13:47:58.827Z,19.33
2022-12-14T13:50:43.317Z,19.17
2022-12-14T13:53:48.542Z,19.73
2022-12-14T13:56:32.640Z,20.70
2022-12-14T13:59:04.993Z,19.40
2022-12-14T14:01:47.059Z,20.20
2022-12-14T14:04:20.175Z,20.67
2022-12-14T14:06:49.827Z,20.17
2022-12-14T14:09:29.064Z,19.40
2022-12-14T14:12:35.972Z,19.93
2022-12-14T14:15:09.524Z,19.38
2022-12-14T14:17:47.280Z,19.53
2022-12-14T14:20:42.260Z,20.60
2022-12-14T14:23:17.838Z,19.93
2022-12-14T14:26:13.905Z,19.77
2022-12-14T14:28:41.116Z,22.85
2022-12-14T14:31:08.311Z,20.30
2022-12-14T14:33:50.321Z,20.53
2022-12-14T14:36:30.414Z,20.23
2022-12-14T14:39:14.327Z,21.43
2022-12-14T14:41:53.097Z,21.60
2022-12-14T14:44:22.414Z,21.80
2022-12-14T14:46:50.656Z,21.40
2022-12-14T14:49:39.726Z,20.33
2022-12-14T14:52:37.832Z,21.17
2022-12-14T14:55:54.863Z,19.93
2022-12-14T14:58:27.969Z,19.73
2022-12-14T15:01:15.636Z,21.20
2022-12-14T15:03:55.475Z,21.33
2022-12-14T15:06:39.536Z,22.27
2022-12-14T15:09:21.079Z,22.17
2022-12-14T15:12:00.179Z,22.60
2022-12-14T15:14:35.535Z,21.00
2022-12-14T15:17:19.180Z,22.23
2022-12-14T15:20:23.937Z,21.80
2022-12-14T15:22:52.578Z,21.30
2022-12-14T15:25:30.094Z,21.90
2022-12-14T15:28:07.667Z,20.60
2022-12-14T15:30:35.783Z,22.17
2022-12-14T15:33:17.327Z,22.03
2022-12-14T15:35:49.391Z,22.00
2022-12-14T15:38:24.412Z,21.20
2022-12-14T15:41:17.363Z,22.05
2022-12-14T15:43:53.769Z,21.87
2022-12-14T15:46:33.995Z,20.47
2022-12-14T15:49:05.975Z,21.87
2022-12-14T15:51:43.297Z,21.27
2022-12-14T15:54:28.767Z,23.50
2022-12-14T15:56:58.999Z,22.52
2022-12-14T15:59:35.923Z,20.93
2022-12-14T16:02:31.939Z,20.70
2022-12-14T16:05:03.302Z,20.92
2022-12-14T16:07:38.731Z,21.87
2022-12-14T16:10:32.308Z,19.95
2022-12-14T16:13:09.167Z,21.03
2022-12-14T16:15:36.615Z,20.40
2022-12-14T16:18:04.162Z,21.30
2022-12-14T16:20:35.988Z,21.33
2022-12-14T16:23:14.975Z,21.73
2022-12-14T16:26:04.020Z,22.43
2022-12-14T16:28:37.648Z,21.23
2022-12-14T16:31:22.351Z,21.20
2022-12-14T16:34:18.906Z,21.97
2022-12-14T16:37:08.487Z,21.40
2022-12-14T16:39:48.082Z,20.03
2022-12-14T16:42:26.741Z,22.03
2022-12-14T16:44:54.593Z,20.53
2022-12-14T16:47:28.739Z,22.13
2022-12-14T16:50:02.381Z,20.17
2022-12-14T16:52:36.468Z,21.27
2022-12-14T16:55:20.590Z,21.10
2022-12-14T16:57:56.472Z,23.73
2022-12-14T17:00:31.718Z,22.43
2022-12-14T17:03:09.263Z,21.67
2022-12-14T17:05:42.024Z,23.23
2022-12-14T17:08:12.420Z,22.63
2022-12-14T17:10:41.295Z,21.70
2022-12-14T17:13:10.495Z,22.73
2022-12-14T17:16:06.214Z,23.03
2022-12-14T17:18:39.195Z,21.98
2022-12-14T17:21:16.085Z,23.90
2022-12-14T17:23:45.821Z,20.73
2022-12-14T17:26:30.943Z,23.93
2022-12-14T17:28:59.542Z,21.63
2022-12-14T17:31:36.764Z,23.40
2022-12-14T17:34:04.644Z,23.17
2022-12-14T17:36:32.747Z,23.13
2022-12-14T17:39:00.855Z,22.43
2022-12-14T17:41:29.398Z,22.73
2022-12-14T17:43:58.986Z,24.17
2022-12-14T17:46:27.682Z,24.70
2022-12-14T17:48:55.515Z,24.20
2022-12-14T17:51:29.878Z,23.93
2022-12-14T17:53:59.503Z,24.67
2022-12-14T17:56:28.420Z,24.20
2022-12-14T17:58:56.878Z,25.73
2022-12-14T18:01:30.920Z,25.33
2022-12-14T18:03:58.847Z,24.70
2022-12-14T18:06:26.693Z,25.13
2022-12-14T18:08:54.724Z,26.90
2022-12-14T18:11:30.345Z,25.23
2022-12-14T18:13:59.617Z,26.53
2022-12-14T18:16:29.075Z,24.57
2022-12-14T18:18:58.184Z,26.23
2022-12-14T18:21:29.680Z,27.00
2022-12-14T18:24:00.797Z,24.40
2022-12-14T18:26:32.614Z,25.60
2022-12-14T18:29:00.891Z,27.40
2022-12-14T18:31:38.072Z,27.17
2022-12-14T18:34:06.590Z,26.93
2022-12-14T18:36:36.523Z,28.00
2022-12-14T18:39:06.653Z,27.70
2022-12-14T18:41:37.791Z,28.03
2022-12-14T18:44:08.934Z,28.50
2022-12-14T18:46:42.584Z,28.20
2022-12-14T18:49:19.489Z,28.73
2022-12-14T18:51:50.578Z,31.23
2022-12-14T18:54:19.412Z,29.47
2022-12-14T18:56:49.668Z,29.33
2022-12-14T18:59:21.677Z,28.90
2022-12-14T19:01:54.390Z,30.70
2022-12-14T19:04:26.477Z,30.40
2022-12-14T19:07:05.101Z,29.10
2022-12-14T19:09:38.123Z,31.03
2022-12-14T19:12:07.660Z,32.40
2022-12-14T19:14:36.282Z,32.60
2022-12-14T19:17:08.477Z,31.67
2022-12-14T19:19:44.292Z,31.70
2022-12-14T19:22:14.804Z,29.07
2022-12-14T19:24:49.161Z,33.43
2022-12-14T19:28:00.917Z,31.73
2022-12-14T19:30:23.365Z,33.23
2022-12-14T19:32:55.203Z,33.93
2022-12-14T19:35:27.646Z,33.00
2022-12-14T19:37:57.755Z,34.37
2022-12-14T19:40:28.233Z,34.53
2022-12-14T19:42:56.646Z,34.43
2022-12-14T19:45:25.591Z,36.57
2022-12-14T19:47:55.586Z,33.30
2022-12-14T19:50:24.385Z,36.50
2022-12-14T19:52:56.349Z,36.17
2022-12-14T19:55:26.388Z,36.87
2022-12-14T19:57:55.359Z,37.17
2022-12-14T20:00:27.247Z,37.37
2022-12-14T20:02:56.907Z,36.40
2022-12-14T20:05:26.124Z,38.33
2022-12-14T20:07:55.027Z,37.73
2022-12-14T20:10:23.631Z,36.83
2022-12-14T20:12:52.176Z,36.10
2022-12-14T20:15:23.763Z,35.43
2022-12-14T20:17:56.232Z,36.23
2022-12-14T20:20:28.255Z,37.70
2022-12-14T20:22:58.550Z,36.40
2022-12-14T20:25:28.639Z,36.37
2022-12-14T20:27:57.722Z,37.57
2022-12-14T20:30:26.932Z,37.40
2022-12-14T20:32:55.322Z,37.27
2022-12-14T20:35:25.195Z,34.97
2022-12-14T20:37:54.452Z,36.70
2022-12-14T20:40:23.983Z,36.77
2022-12-14T20:42:55.088Z,36.63
2022-12-14T20:45:24.799Z,34.90
2022-12-14T20:47:56.906Z,36.33
2022-12-14T20:50:26.829Z,37.33
2022-12-14T20:52:55.523Z,37.60
2022-12-14T20:55:25.490Z,36.07
2022-12-14T20:57:54.558Z,37.40
2022-12-14T21:00:24.465Z,35.87
2022-12-14T21:02:53.018Z,35.73
2022-12-14T21:05:21.072Z,34.13
2022-12-14T21:07:48.835Z,36.67
2022-12-14T21:10:19.650Z,35.20
2022-12-14T21:12:49.662Z,36.50
2022-12-14T21:15:17.128Z,37.70
2022-12-14T21:17:47.736Z,36.10
2022-12-14T21:20:15.274Z,35.27
2022-12-14T21:22:42.813Z,36.40
2022-12-14T21:25:11.237Z,35.87
2022-12-14T21:27:40.945Z,35.50
2022-12-14T21:30:12.035Z,35.33
2022-12-14T21:32:39.625Z,38.27
2022-12-14T21:35:08.023Z,37.63
2022-12-14T21:37:37.995Z,37.60
2022-12-14T21:40:06.216Z,36.17
2022-12-14T21:42:36.488Z,36.87
2022-12-14T21:45:04.999Z,36.70
2022-12-14T21:47:32.048Z,37.90
2022-12-14T21:49:59.169Z,35.97
2022-12-14T21:52:28.214Z,37.73
2022-12-14T21:54:55.751Z,36.77
2022-12-14T21:57:49.505Z,36.87
2022-12-14T22:00:18.715Z,36.77
2022-12-14T22:02:46.336Z,34.23
2022-12-14T22:05:13.789Z,36.93
2022-12-14T22:07:40.860Z,38.33
2022-12-14T22:10:08.362Z,37.23
2022-12-14T22:12:35.616Z,37.67
2022-12-14T22:15:02.748Z,37.70
2022-12-14T22:17:30.071Z,37.43
2022-12-14T22:19:57.167Z,36.23
2022-12-14T22:22:24.204Z,36.27
2022-12-14T22:24:51.606Z,37.13
2022-12-14T22:27:19.582Z,36.17
2022-12-14T22:29:46.729Z,35.47
2022-12-14T22:32:14.968Z,38.97
2022-12-14T22:34:42.422Z,36.43
2022-12-14T22:37:09.558Z,38.83
2022-12-14T22:39:36.715Z,39.40
2022-12-14T22:42:03.953Z,38.47
2022-12-14T22:44:31.034Z,38.23
2022-12-14T22:46:58.369Z,37.90
2022-12-14T22:49:25.536Z,39.27
2022-12-14T22:51:52.965Z,38.13
2022-12-14T22:54:27.740Z,37.20
2022-12-14T22:57:06.209Z,38.93
2022-12-14T23:00:07.760Z,38.87
2022-12-14T23:02:35.221Z,39.27
2022-12-14T23:05:02.649Z,38.00
2022-12-14T23:07:29.802Z,36.13
2022-12-14T23:10:16.194Z,38.60
2022-12-14T23:13:01.730Z,37.80
2022-12-14T23:15:47.309Z,36.55
2022-12-14T23:18:32.932Z,36.30
2022-12-14T23:21:18.575Z,37.25
2022-12-14T23:24:05.212Z,36.13
2022-12-14T23:26:51.811Z,36.50
2022-12-14T23:29:37.592Z,37.47
2022-12-14T23:32:23.301Z,38.28
2022-12-14T23:35:09.270Z,35.78
2022-12-14T23:37:55.233Z,37.05
2022-12-14T23:40:40.736Z,37.03
2022-12-14T23:43:35.887Z,37.35
2022-12-14T23:46:23.518Z,35.27
2022-12-14T23:49:15.370Z,37.67
2022-12-14T23:52:01.556Z,38.03
2022-12-14T23:54:47.456Z,36.55
2022-12-14T23:57:33.625Z,36.13
